sim
Sign-in with your pilot id or email,
or register
Callsign
Passwort

Schedule Details

Flight Number: OEO2133
Departure: Samos Airport (LGSM) at 14:10
Arrival: Munich Airport (EDDM) at 17:05

Weather Information
Getting current METAR information for LGSM 010550Z 00000KT CAVOK 17/14 Q1010
Getting current METAR information for EDDM 010550Z VRB01KT 0500 R08L/0375N R08R/0250N FG BKN001 04/04 Q1009 BECMG 1200 BCFG BKN002

Schedule Frequency

Route Map